createdAt,value
2018-12-02T00:01:10.804Z,35.03
2018-12-02T00:03:47.262Z,35.97
2018-12-02T00:06:19.953Z,35.98
2018-12-02T00:08:52.450Z,37.00
2018-12-02T00:11:24.884Z,35.03
2018-12-02T00:13:57.115Z,44.50
2018-12-02T00:16:29.374Z,34.83
2018-12-02T00:19:01.874Z,35.40
2018-12-02T00:21:34.233Z,36.80
2018-12-02T00:24:06.491Z,35.57
2018-12-02T00:26:38.837Z,40.30
2018-12-02T00:29:11.069Z,35.83
2018-12-02T00:31:43.476Z,34.87
2018-12-02T00:34:15.700Z,38.70
2018-12-02T00:36:48.268Z,39.00
2018-12-02T00:39:20.592Z,37.60
2018-12-02T00:41:52.895Z,42.40
2018-12-02T00:44:25.208Z,41.13
2018-12-02T00:46:57.698Z,38.27
2018-12-02T00:49:30.064Z,40.87
2018-12-02T00:52:02.380Z,56.03
2018-12-02T00:54:34.684Z,45.13
2018-12-02T00:57:07.156Z,48.03
2018-12-02T00:59:39.596Z,44.60
2018-12-02T01:02:12.585Z,41.70
2018-12-02T01:04:44.875Z,43.83
2018-12-02T01:07:17.173Z,46.47
2018-12-02T01:09:49.444Z,42.23
2018-12-02T01:12:21.678Z,44.13
2018-12-02T01:14:53.943Z,44.60
2018-12-02T01:17:26.360Z,48.57
2018-12-02T01:19:58.731Z,47.70
2018-12-02T01:22:31.096Z,53.90
2018-12-02T01:25:03.317Z,50.70
2018-12-02T01:27:35.640Z,52.60
2018-12-02T01:30:11.864Z,54.30
2018-12-02T01:32:44.261Z,52.40
2018-12-02T01:35:17.565Z,47.43
2018-12-02T01:37:50.473Z,50.07
2018-12-02T01:40:26.465Z,58.30
2018-12-02T01:42:58.765Z,50.23
2018-12-02T01:45:31.023Z,57.20
2018-12-02T01:48:03.315Z,52.93
2018-12-02T01:50:35.581Z,49.00
2018-12-02T01:53:08.217Z,50.70
2018-12-02T01:55:40.516Z,45.43
2018-12-02T01:58:13.713Z,45.57
2018-12-02T02:00:46.233Z,46.07
2018-12-02T02:03:18.536Z,46.80
2018-12-02T02:05:50.767Z,53.83
2018-12-02T02:08:23.417Z,51.13
2018-12-02T02:10:55.649Z,57.77
2018-12-02T02:13:28.301Z,47.97
2018-12-02T02:16:01.035Z,57.00
2018-12-02T02:18:33.589Z,54.20
2018-12-02T02:21:06.972Z,54.40
2018-12-02T02:23:39.538Z,47.77
2018-12-02T02:26:12.356Z,49.80
2018-12-02T02:28:44.630Z,48.07
2018-12-02T02:31:16.875Z,58.23
2018-12-02T02:33:49.660Z,51.47
2018-12-02T02:36:21.861Z,48.67
2018-12-02T02:38:54.949Z,51.43
2018-12-02T02:41:27.932Z,55.37
2018-12-02T02:44:00.206Z,47.03
2018-12-02T02:46:32.459Z,47.43
2018-12-02T02:49:04.728Z,49.43
2018-12-02T02:51:37.116Z,46.60
2018-12-02T02:54:09.994Z,52.80
2018-12-02T02:56:42.354Z,52.53
2018-12-02T02:59:14.646Z,55.33
2018-12-02T03:01:47.322Z,65.47
2018-12-02T03:04:19.617Z,56.73
2018-12-02T03:06:51.909Z,58.90
2018-12-02T03:09:24.357Z,51.73
2018-12-02T03:11:56.612Z,68.00
2018-12-02T03:14:29.051Z,57.83
2018-12-02T03:17:01.248Z,54.23
2018-12-02T03:19:33.760Z,52.73
2018-12-02T03:22:06.242Z,53.47
2018-12-02T03:24:38.630Z,56.90
2018-12-02T03:27:10.823Z,59.53
2018-12-02T03:29:43.152Z,64.00
2018-12-02T03:32:15.355Z,60.50
2018-12-02T03:34:47.696Z,56.03
2018-12-02T03:37:19.892Z,61.97
2018-12-02T03:39:52.260Z,58.83
2018-12-02T03:42:27.020Z,54.10
2018-12-02T03:44:59.255Z,51.23
2018-12-02T03:47:31.481Z,53.40
2018-12-02T03:50:03.717Z,53.60
2018-12-02T03:52:35.934Z,55.43
2018-12-02T03:55:09.405Z,57.27
2018-12-02T03:57:41.668Z,50.00
2018-12-02T04:00:16.361Z,43.23
2018-12-02T04:02:48.751Z,49.47
2018-12-02T04:05:22.180Z,50.77
2018-12-02T04:07:54.812Z,51.33
2018-12-02T04:10:27.198Z,44.57
2018-12-02T04:12:59.800Z,49.90
2018-12-02T04:15:32.334Z,49.33
2018-12-02T04:18:04.673Z,49.37
2018-12-02T04:20:37.098Z,43.83
2018-12-02T04:23:10.030Z,44.70
2018-12-02T04:25:42.425Z,54.77
2018-12-02T04:28:14.609Z,46.23
2018-12-02T04:30:47.011Z,48.90
2018-12-02T04:33:19.176Z,54.80
2018-12-02T04:35:51.483Z,42.10
2018-12-02T04:38:23.761Z,44.53
2018-12-02T04:40:56.193Z,44.70
2018-12-02T04:43:28.613Z,43.53
2018-12-02T04:46:00.901Z,45.93
2018-12-02T04:48:33.520Z,41.97
2018-12-02T04:51:05.800Z,38.93
2018-12-02T04:53:38.077Z,46.00
2018-12-02T04:56:10.476Z,41.97
2018-12-02T04:58:42.752Z,43.43
2018-12-02T05:01:15.051Z,35.77
2018-12-02T05:03:47.512Z,40.60
2018-12-02T05:06:19.788Z,40.30
2018-12-02T05:08:52.158Z,36.43
2018-12-02T05:11:24.538Z,41.20
2018-12-02T05:13:57.038Z,46.67
2018-12-02T05:16:29.622Z,36.00
2018-12-02T05:19:03.337Z,33.03
2018-12-02T05:21:35.753Z,39.30
2018-12-02T05:24:08.339Z,29.97
2018-12-02T05:26:40.729Z,26.30
2018-12-02T05:29:12.917Z,29.40
2018-12-02T05:31:45.224Z,33.57
2018-12-02T05:34:17.460Z,29.30
2018-12-02T05:36:49.816Z,26.03
2018-12-02T05:39:21.998Z,25.23
2018-12-02T05:41:58.732Z,27.93
2018-12-02T05:44:31.291Z,29.07
2018-12-02T05:47:04.617Z,28.63
2018-12-02T05:49:36.872Z,26.20
2018-12-02T05:52:09.230Z,28.40
2018-12-02T05:54:41.462Z,25.40
2018-12-02T05:57:13.842Z,24.17
2018-12-02T05:59:46.082Z,27.20
2018-12-02T06:02:19.069Z,24.67
2018-12-02T06:04:51.422Z,24.10
2018-12-02T06:07:24.486Z,21.87
2018-12-02T06:09:56.764Z,18.43
2018-12-02T06:12:30.092Z,20.60
2018-12-02T06:15:02.277Z,19.80
2018-12-02T06:17:34.589Z,23.67
2018-12-02T06:20:08.185Z,20.90
2018-12-02T06:22:40.507Z,20.50
2018-12-02T06:25:13.284Z,25.63
2018-12-02T06:27:45.772Z,18.03
2018-12-02T06:30:20.928Z,25.63
2018-12-02T06:32:57.070Z,21.13
2018-12-02T06:35:29.289Z,25.20
2018-12-02T06:38:02.627Z,27.17
2018-12-02T06:40:34.923Z,25.97
2018-12-02T06:43:07.380Z,29.77
2018-12-02T06:45:39.891Z,22.03
2018-12-02T06:48:12.252Z,23.23
2018-12-02T06:50:44.597Z,24.77
2018-12-02T06:53:16.996Z,23.17
2018-12-02T06:56:02.104Z,21.37
2018-12-02T06:58:55.333Z,25.67
2018-12-02T07:01:38.306Z,23.77
2018-12-02T07:04:25.681Z,26.23
2018-12-02T07:06:58.146Z,26.47
2018-12-02T07:09:30.513Z,25.67
2018-12-02T07:12:02.761Z,28.87
2018-12-02T07:14:35.156Z,26.27
2018-12-02T07:17:07.401Z,27.67
2018-12-02T07:19:44.617Z,27.80
2018-12-02T07:22:27.520Z,32.73
2018-12-02T07:25:02.483Z,30.80
2018-12-02T07:27:34.828Z,27.10
2018-12-02T07:30:08.069Z,27.27
2018-12-02T07:32:40.337Z,30.37
2018-12-02T07:35:14.464Z,27.33
2018-12-02T07:37:49.748Z,27.17
2018-12-02T07:40:28.696Z,22.67
2018-12-02T07:43:00.920Z,22.63
2018-12-02T07:45:33.964Z,22.10
2018-12-02T07:48:06.130Z,22.80
2018-12-02T07:50:38.495Z,28.63
2018-12-02T07:53:10.692Z,27.80
2018-12-02T07:55:43.055Z,37.47
2018-12-02T07:58:18.274Z,33.87
2018-12-02T08:00:50.746Z,26.83
2018-12-02T08:03:22.952Z,27.27
2018-12-02T08:05:55.298Z,28.73
2018-12-02T08:08:27.549Z,24.53
2018-12-02T08:10:59.901Z,29.10
2018-12-02T08:13:32.177Z,33.90
2018-12-02T08:16:04.608Z,33.10
2018-12-02T08:18:36.860Z,27.80
2018-12-02T08:21:09.183Z,33.07
2018-12-02T08:23:41.480Z,30.13
2018-12-02T08:26:13.839Z,38.80
2018-12-02T08:28:46.560Z,28.73
2018-12-02T08:31:18.908Z,27.20
2018-12-02T08:33:51.124Z,29.77
2018-12-02T08:36:23.412Z,26.80
2018-12-02T08:38:55.656Z,29.03
2018-12-02T08:41:27.947Z,25.23
2018-12-02T08:44:00.077Z,23.87
2018-12-02T08:46:32.431Z,26.10
2018-12-02T08:49:04.794Z,22.13
2018-12-02T08:51:37.068Z,25.83
2018-12-02T08:54:09.202Z,24.50
2018-12-02T08:56:41.765Z,24.97
2018-12-02T08:59:13.937Z,22.50
2018-12-02T09:01:46.227Z,28.53
2018-12-02T09:04:18.376Z,30.53
2018-12-02T09:06:50.765Z,22.00
2018-12-02T09:09:23.182Z,29.00
2018-12-02T09:11:55.551Z,23.27
2018-12-02T09:14:27.741Z,29.30
2018-12-02T09:17:00.812Z,27.33
2018-12-02T09:19:32.436Z,31.47
2018-12-02T09:22:04.782Z,28.07
2018-12-02T09:24:37.032Z,26.20
2018-12-02T09:27:09.435Z,27.30
2018-12-02T09:29:41.914Z,23.40
2018-12-02T09:32:14.138Z,21.90
2018-12-02T09:34:46.314Z,27.83
2018-12-02T09:37:18.593Z,31.67
2018-12-02T09:39:50.802Z,23.90
2018-12-02T09:42:23.172Z,25.37
2018-12-02T09:44:55.618Z,23.87
2018-12-02T09:47:27.877Z,25.60
2018-12-02T09:50:00.194Z,29.17
2018-12-02T09:52:32.517Z,22.57
2018-12-02T09:55:04.730Z,25.80
2018-12-02T09:57:37.144Z,25.27
2018-12-02T10:00:17.260Z,21.90
2018-12-02T10:02:49.752Z,26.17
2018-12-02T10:05:21.950Z,29.90
2018-12-02T10:07:54.509Z,26.40
2018-12-02T10:10:26.999Z,32.73
2018-12-02T10:13:02.524Z,24.80
2018-12-02T10:15:34.931Z,25.80
2018-12-02T10:18:07.324Z,24.50
2018-12-02T10:20:39.503Z,28.43
2018-12-02T10:23:12.066Z,23.23
2018-12-02T10:25:44.258Z,23.87
2018-12-02T10:28:16.554Z,23.00
2018-12-02T10:30:48.963Z,25.63
2018-12-02T10:33:21.300Z,27.40
2018-12-02T10:35:53.537Z,31.43
2018-12-02T10:38:25.793Z,30.47
2018-12-02T10:40:57.993Z,26.50
2018-12-02T10:43:30.308Z,25.47
2018-12-02T10:46:02.541Z,25.73
2018-12-02T10:48:35.865Z,31.57
2018-12-02T10:51:08.223Z,25.70
2018-12-02T10:53:40.487Z,27.87
2018-12-02T10:56:12.693Z,28.93
2018-12-02T10:58:44.944Z,27.87
2018-12-02T11:01:19.368Z,30.97
2018-12-02T11:03:52.101Z,28.77
2018-12-02T11:06:24.279Z,28.73
2018-12-02T11:08:56.564Z,31.17
2018-12-02T11:11:28.976Z,27.83
2018-12-02T11:14:01.162Z,40.20
2018-12-02T11:16:33.316Z,25.67
2018-12-02T11:19:07.220Z,33.77
2018-12-02T11:21:39.394Z,35.33
2018-12-02T11:24:11.582Z,32.50
2018-12-02T11:26:43.829Z,28.73
2018-12-02T11:29:16.122Z,27.93
2018-12-02T11:31:48.565Z,31.20
2018-12-02T11:34:20.872Z,29.90
2018-12-02T11:36:53.064Z,35.23
2018-12-02T11:39:25.262Z,27.93
2018-12-02T11:41:57.432Z,25.43
2018-12-02T11:44:29.622Z,29.57
2018-12-02T11:47:01.816Z,29.70
2018-12-02T11:49:34.165Z,29.03
2018-12-02T11:52:06.593Z,31.13
2018-12-02T11:54:38.834Z,30.33
2018-12-02T11:57:10.993Z,34.03
2018-12-02T11:59:43.300Z,32.43
2018-12-02T12:02:15.477Z,32.33
2018-12-02T12:04:47.773Z,31.23
2018-12-02T12:07:19.933Z,31.87
2018-12-02T12:09:52.175Z,34.73
2018-12-02T12:12:24.599Z,36.67
2018-12-02T12:14:56.869Z,31.43
2018-12-02T12:17:28.992Z,31.80
2018-12-02T12:20:01.281Z,33.30
2018-12-02T12:22:33.448Z,30.13
2018-12-02T12:25:05.763Z,33.73
2018-12-02T12:27:37.928Z,33.23
2018-12-02T12:30:18.431Z,30.63
2018-12-02T12:32:50.744Z,27.53
2018-12-02T12:35:23.226Z,31.77
2018-12-02T12:37:55.419Z,29.53
2018-12-02T12:40:29.898Z,37.60
2018-12-02T12:43:10.909Z,29.87
2018-12-02T12:45:43.163Z,38.73
2018-12-02T12:48:15.315Z,48.57
2018-12-02T12:50:48.323Z,36.17
2018-12-02T12:53:20.754Z,41.90
2018-12-02T12:55:53.257Z,36.00
2018-12-02T12:58:26.129Z,40.03
2018-12-02T13:00:58.397Z,41.10
2018-12-02T13:03:30.576Z,35.07
2018-12-02T13:06:02.949Z,39.70
2018-12-02T13:08:35.147Z,36.50
2018-12-02T13:11:08.257Z,44.20
2018-12-02T13:13:40.646Z,35.67
2018-12-02T13:16:12.916Z,34.83
2018-12-02T13:18:45.175Z,39.00
2018-12-02T13:21:17.491Z,40.13
2018-12-02T13:23:49.628Z,32.07
2018-12-02T13:26:21.890Z,33.73
2018-12-02T13:28:54.087Z,31.20
2018-12-02T13:31:26.368Z,32.77
2018-12-02T13:33:58.651Z,31.17
2018-12-02T13:36:31.034Z,33.10
2018-12-02T13:39:03.206Z,28.93
2018-12-02T13:41:35.512Z,31.00
2018-12-02T13:44:08.412Z,27.37
2018-12-02T13:46:40.722Z,26.30
2018-12-02T13:49:12.933Z,24.80
2018-12-02T13:51:45.246Z,29.97
2018-12-02T13:54:22.150Z,27.30
2018-12-02T13:56:54.464Z,27.33
2018-12-02T13:59:26.650Z,27.80
2018-12-02T14:01:58.887Z,23.47
2018-12-02T14:04:31.092Z,26.90
2018-12-02T14:07:03.526Z,23.83
2018-12-02T14:09:35.703Z,24.90
2018-12-02T14:12:08.769Z,26.70
2018-12-02T14:14:43.999Z,25.33
2018-12-02T14:17:19.194Z,24.37
2018-12-02T14:19:51.921Z,26.23
2018-12-02T14:22:27.755Z,28.03
2018-12-02T14:25:02.744Z,29.53
2018-12-02T14:27:33.101Z,28.73
2018-12-02T14:30:05.468Z,29.13
2018-12-02T14:32:37.856Z,31.70
2018-12-02T14:35:11.535Z,34.00
2018-12-02T14:37:43.909Z,38.73
2018-12-02T14:40:17.144Z,33.23
2018-12-02T14:42:49.548Z,29.63
2018-12-02T14:45:21.864Z,28.43
2018-12-02T14:47:54.187Z,26.03
2018-12-02T14:50:26.357Z,25.77
2018-12-02T14:52:58.640Z,23.55
2018-12-02T14:55:31.016Z,25.05
2018-12-02T14:58:03.325Z,22.58
2018-12-02T15:00:35.583Z,19.87
2018-12-02T15:03:08.251Z,21.07
2018-12-02T15:05:40.446Z,16.65
2018-12-02T15:08:12.797Z,14.20
2018-12-02T15:10:45.034Z,14.68
2018-12-02T15:13:17.256Z,15.70
2018-12-02T15:15:49.610Z,15.72
2018-12-02T15:18:22.116Z,18.17
2018-12-02T15:20:54.397Z,15.43
2018-12-02T15:23:26.741Z,17.70
2018-12-02T15:25:59.014Z,18.70
2018-12-02T15:28:31.408Z,15.72
2018-12-02T15:31:03.626Z,16.77
2018-12-02T15:33:37.857Z,15.63
2018-12-02T15:36:12.040Z,18.17
2018-12-02T15:38:44.907Z,18.02
2018-12-02T15:41:17.208Z,16.93
2018-12-02T15:43:49.701Z,16.95
2018-12-02T15:46:21.909Z,15.25
2018-12-02T15:48:54.228Z,16.60
2018-12-02T15:51:26.486Z,15.95
2018-12-02T15:53:58.794Z,14.05
2018-12-02T15:56:32.372Z,13.98
2018-12-02T15:59:08.982Z,12.30
2018-12-02T16:01:41.689Z,13.10
2018-12-02T16:04:14.076Z,15.40
2018-12-02T16:06:46.327Z,15.28
2018-12-02T16:09:19.061Z,14.47
2018-12-02T16:11:51.286Z,15.05
2018-12-02T16:14:23.554Z,14.90
2018-12-02T16:16:55.859Z,14.33
2018-12-02T16:19:28.184Z,18.32
2018-12-02T16:22:00.421Z,13.45
2018-12-02T16:24:32.794Z,14.43
2018-12-02T16:27:04.982Z,13.60
2018-12-02T16:29:37.228Z,15.40
2018-12-02T16:32:09.855Z,16.37
2018-12-02T16:34:42.084Z,15.00
2018-12-02T16:37:14.607Z,13.53
2018-12-02T16:39:46.987Z,15.05
2018-12-02T16:42:19.291Z,13.98
2018-12-02T16:44:51.541Z,15.72
2018-12-02T16:47:23.778Z,17.17
2018-12-02T16:49:55.968Z,13.20
2018-12-02T16:52:28.347Z,18.30
2018-12-02T16:55:00.724Z,15.63
2018-12-02T16:57:35.054Z,15.65
2018-12-02T17:00:09.672Z,16.67
2018-12-02T17:02:42.014Z,15.63
2018-12-02T17:05:15.210Z,16.12
2018-12-02T17:07:47.646Z,16.32
2018-12-02T17:10:20.119Z,15.83
2018-12-02T17:12:52.368Z,14.87
2018-12-02T17:15:24.735Z,15.35
2018-12-02T17:17:57.052Z,13.93
2018-12-02T17:20:30.253Z,17.75
2018-12-02T17:23:02.651Z,14.68
2018-12-02T17:25:35.174Z,15.08
2018-12-02T17:28:07.434Z,15.70
2018-12-02T17:30:44.056Z,12.70
2018-12-02T17:33:16.246Z,11.45
2018-12-02T17:35:48.574Z,12.33
2018-12-02T17:38:21.325Z,9.43
2018-12-02T17:40:53.808Z,10.03
2018-12-02T17:43:26.038Z,10.32
2018-12-02T17:45:58.334Z,10.50
2018-12-02T17:48:30.587Z,8.73
2018-12-02T17:51:02.888Z,11.45
2018-12-02T17:53:35.079Z,15.32
2018-12-02T17:56:08.538Z,8.35
2018-12-02T17:58:40.811Z,10.78
2018-12-02T18:01:13.398Z,10.18
2018-12-02T18:03:45.650Z,11.10
2018-12-02T18:06:18.098Z,8.88
2018-12-02T18:08:50.321Z,8.25
2018-12-02T18:11:22.649Z,10.65
2018-12-02T18:13:54.964Z,8.85
2018-12-02T18:16:27.307Z,9.53
2018-12-02T18:18:59.813Z,16.50
2018-12-02T18:21:32.101Z,7.85
2018-12-02T18:24:04.396Z,8.68
2018-12-02T18:26:38.122Z,12.78
2018-12-02T18:29:10.319Z,10.53
2018-12-02T18:31:42.616Z,15.93
2018-12-02T18:34:14.904Z,10.18
2018-12-02T18:36:47.146Z,9.13
2018-12-02T18:39:21.473Z,10.05
2018-12-02T18:41:55.838Z,7.78
2018-12-02T18:44:28.087Z,9.58
2018-12-02T18:47:00.334Z,10.35
2018-12-02T18:49:32.558Z,8.88
2018-12-02T18:52:04.884Z,9.90
2018-12-02T18:54:37.152Z,8.85
2018-12-02T18:57:09.614Z,7.67
2018-12-02T18:59:42.215Z,9.33
2018-12-02T19:02:15.120Z,8.15
2018-12-02T19:04:47.515Z,9.03
2018-12-02T19:07:20.047Z,9.30
2018-12-02T19:09:52.300Z,10.28
2018-12-02T19:12:24.593Z,8.78
2018-12-02T19:14:56.826Z,7.42
2018-12-02T19:17:29.202Z,10.00
2018-12-02T19:20:01.506Z,8.10
2018-12-02T19:22:34.059Z,9.55
2018-12-02T19:25:06.429Z,10.32
2018-12-02T19:27:38.801Z,14.73
2018-12-02T19:30:15.188Z,8.55
2018-12-02T19:32:48.052Z,11.90
2018-12-02T19:35:21.886Z,8.25
2018-12-02T19:37:55.719Z,9.88
2018-12-02T19:40:28.544Z,11.18
2018-12-02T19:43:00.960Z,9.75
2018-12-02T19:45:33.225Z,11.38
2018-12-02T19:48:05.607Z,12.07
2018-12-02T19:50:37.805Z,12.20
2018-12-02T19:53:10.098Z,10.88
2018-12-02T19:55:42.357Z,10.25
2018-12-02T19:58:15.666Z,12.93
2018-12-02T20:00:49.148Z,9.80
2018-12-02T20:03:21.890Z,9.70
2018-12-02T20:05:54.288Z,13.18
2018-12-02T20:08:26.632Z,10.50
2018-12-02T20:10:58.996Z,13.10
2018-12-02T20:13:31.327Z,11.83
2018-12-02T20:16:08.219Z,13.18
2018-12-02T20:18:40.593Z,16.42
2018-12-02T20:21:14.640Z,13.03
2018-12-02T20:23:51.984Z,12.95
2018-12-02T20:26:24.384Z,12.20
2018-12-02T20:28:58.826Z,10.90
2018-12-02T20:31:32.155Z,14.30
2018-12-02T20:34:04.564Z,13.43
2018-12-02T20:36:36.832Z,13.38
2018-12-02T20:39:12.472Z,11.97
2018-12-02T20:41:48.786Z,12.50
2018-12-02T20:44:21.057Z,12.45
2018-12-02T20:46:53.309Z,17.00
2018-12-02T20:49:25.700Z,12.07
2018-12-02T20:51:57.832Z,13.32
2018-12-02T20:54:30.329Z,15.30
2018-12-02T20:57:02.657Z,15.10
2018-12-02T20:59:34.880Z,12.50
2018-12-02T21:02:07.380Z,14.03
2018-12-02T21:04:39.727Z,15.65
2018-12-02T21:07:11.935Z,17.60
2018-12-02T21:09:44.361Z,15.35
2018-12-02T21:12:16.664Z,15.25
2018-12-02T21:14:49.143Z,14.10
2018-12-02T21:17:21.497Z,12.85
2018-12-02T21:19:53.790Z,15.13
2018-12-02T21:22:26.245Z,13.68
2018-12-02T21:24:58.599Z,14.23
2018-12-02T21:27:30.842Z,15.13
2018-12-02T21:30:03.184Z,14.87
2018-12-02T21:32:35.419Z,13.88
2018-12-02T21:35:07.804Z,15.85
2018-12-02T21:37:39.991Z,18.85
2018-12-02T21:40:16.188Z,17.25
2018-12-02T21:42:48.715Z,17.82
2018-12-02T21:45:21.295Z,23.18
2018-12-02T21:47:54.931Z,21.30
2018-12-02T21:50:30.180Z,18.27
2018-12-02T21:53:03.500Z,19.15
2018-12-02T21:55:35.879Z,20.30
2018-12-02T21:58:08.506Z,17.70
2018-12-02T22:00:47.748Z,27.20
2018-12-02T22:03:20.287Z,20.30
2018-12-02T22:05:52.733Z,18.73
2018-12-02T22:08:28.503Z,19.02
2018-12-02T22:11:00.836Z,22.40
2018-12-02T22:13:33.016Z,17.80
2018-12-02T22:16:05.867Z,17.37
2018-12-02T22:18:38.097Z,20.97
2018-12-02T22:21:10.389Z,25.32
2018-12-02T22:23:42.530Z,19.62
2018-12-02T22:26:14.915Z,20.68
2018-12-02T22:28:48.320Z,19.77
2018-12-02T22:31:21.434Z,21.42
2018-12-02T22:33:53.748Z,25.08
2018-12-02T22:36:26.047Z,20.15
2018-12-02T22:38:59.087Z,23.32
2018-12-02T22:41:31.422Z,22.48
2018-12-02T22:44:05.578Z,22.93
2018-12-02T22:46:37.854Z,23.45
2018-12-02T22:49:10.106Z,20.08
2018-12-02T22:51:42.434Z,20.27
2018-12-02T22:54:14.695Z,23.75
2018-12-02T22:56:46.994Z,23.05
2018-12-02T22:59:19.518Z,26.57
2018-12-02T23:01:56.151Z,29.42
2018-12-02T23:04:28.617Z,28.27
2018-12-02T23:07:00.846Z,35.50
2018-12-02T23:09:34.026Z,32.75
2018-12-02T23:12:06.395Z,34.70
2018-12-02T23:14:38.582Z,31.07
2018-12-02T23:17:21.201Z,35.45
2018-12-02T23:19:53.500Z,31.00
2018-12-02T23:22:26.778Z,36.15
2018-12-02T23:24:59.848Z,41.55
2018-12-02T23:27:32.152Z,36.28
2018-12-02T23:30:04.371Z,38.98
2018-12-02T23:32:36.707Z,51.00
2018-12-02T23:35:09.924Z,39.05
2018-12-02T23:37:45.035Z,50.10
2018-12-02T23:40:23.698Z,56.47
2018-12-02T23:42:56.053Z,55.20
2018-12-02T23:45:28.243Z,68.20
2018-12-02T23:48:01.372Z,56.05
2018-12-02T23:50:33.623Z,62.37
2018-12-02T23:53:06.127Z,53.03
2018-12-02T23:55:39.336Z,53.73
2018-12-02T23:58:11.711Z,52.95
